Latest Coastal Weather Observations for Newcastle Nobbys

IDN60701

Issued at 1:31 pm EST Tuesday 22 August 2017 (issued every 10 minutes, with the page automatically refreshed every 10 minutes)

About coastal observations | Map of coastal stations | Coastal observations for NSW | Marine services | Other Formats
Station Details ID: 061055 Name: NEWCASTLE NOBBYS SIGNAL STATION AWS Lat: -32.92 Lon: 151.80 Height: 33.0 m
Data from the previous 72 hours. | See also: Recent months at Newcastle Nobbys
Date/Time
EST
Temp
°C
Wind Pressure Rain since
9am
mm
Weather Cloud Vis
km
Sea
Height
m
Swell
Dir  Spd
kts
Gust
kts
hPa Trend Height
m
Period
s
Dir
22/01:30pm 17.3 SSE 10 11 - - 0.0 - - - - - - -
22/01:00pm 16.8 S 9 11 - - 0.0 - - - - - - -
22/12:30pm 16.9 S 9 10 - - 0.0 - - - - - - -
22/12:00pm 16.5 S 10 11 - - 0.0 - - - - - - -
22/11:30am 16.0 S 9 11 - - 0.0 - - - - - - -
22/11:00am 15.9 S 9 11 - - 0.0 - - - - - - -
22/10:30am 15.5 S 10 12 - - 0.0 - - - - - - -
22/10:00am 15.1 SSW 9 12 - - 0.0 - - - - - - -
22/09:30am 14.8 S 11 13 - - 0.0 - - - - - - -
22/09:00am 14.9 S 7 10 - - 0.0 - - - - - - -
22/08:30am 14.2 W 1 2 - - 0.0 - - - - - - -
22/08:00am 12.1 WNW 2 3 - - 0.0 - - - - - - -
22/07:30am 10.6 WNW 4 5 - - 0.0 - - - - - - -
22/07:00am 9.6 WNW 5 7 - - 0.0 - - - - - - -
22/06:30am 9.5 WNW 5 7 - - 0.0 - - - - - - -
22/06:00am 9.7 W 6 8 - - 0.0 - - - - - - -
22/05:30am 9.7 WNW 6 7 - - 0.0 - - - - - - -
22/05:00am 10.0 WNW 6 8 - - 0.0 - - - - - - -
22/04:30am 9.9 WNW 5 7 - - 0.0 - - - - - - -
22/04:00am 10.3 WNW 6 7 - - 0.0 - - - - - - -
22/03:30am 10.3 WNW 6 7 - - 0.0 - - - - - - -
22/03:00am 10.0 WNW 5 6 - - 0.0 - - - - - - -
22/02:30am 10.4 WNW 5 7 - - 0.0 - - - - - - -
22/02:00am 10.8 WNW 4 5 - - 0.0 - - - - - - -
22/01:30am 11.2 WNW 4 5 - - 0.0 - - - - - - -
22/01:00am 11.6 W 3 4 - - 0.0 - - - - - - -
22/12:30am 12.1 NNW 2 4 - - 0.0 - - - - - - -
22/12:00am 12.1 NNW 6 8 - - 0.0 - - - - - - -
 
Date/Time
EST
Temp
°C
Wind Pressure Rain since
9am
mm
Weather Cloud Vis
km
Sea
Height
m
Swell
Dir  Spd
kts
Gust
kts
hPa Trend Height
m
Period
s
Dir
21/11:30pm 12.2 NNW 3 4 - - 0.0 - - - - - - -
21/11:00pm 12.1 W 3 4 - - 0.0 - - - - - - -
21/10:30pm 12.2 WNW 4 5 - - 0.0 - - - - - - -
21/10:00pm 12.4 WNW 6 8 - - 0.0 - - - - - - -
21/09:30pm 12.8 NNW 7 9 - - 0.0 - - - - - - -
21/09:00pm 13.1 NNW 7 8 - - 0.0 - - - - - - -
21/08:30pm 13.1 NNW 4 5 - - 0.0 - - - - - - -
21/08:00pm 13.0 NNW 3 4 - - 0.0 - - - - - - -
21/07:30pm 12.9 N 4 5 - - 0.0 - - - - - - -
21/07:00pm 12.9 NNW 3 4 - - 0.0 - - - - - - -
21/06:30pm 13.0 N 3 5 - - 0.0 - - - - - - -
21/06:00pm 12.9 N 8 10 - - 0.0 - - - - - - -
21/05:30pm 13.2 N 10 11 - - 0.0 - - - - - - -
21/05:00pm 13.3 N 7 9 - - 0.0 - - - - - - -
21/04:30pm 13.2 N 8 9 - - 0.0 - - - - - - -
21/04:00pm 13.4 N 8 11 - - 0.0 - - - - - - -
21/03:30pm 13.3 NNE 6 8 - - 0.0 - - - - - - -
21/03:00pm 13.2 N 7 8 - - 0.0 - - - - - - -
21/02:30pm 13.3 N 5 7 - - 0.0 - - - - - - -
21/02:00pm 13.1 N 5 7 - - 0.0 - - - - - - -
21/01:30pm 13.2 NNW 6 9 - - 0.0 - - - - - - -
21/01:00pm 13.0 NNW 8 11 - - 0.0 - - - - - - -
21/12:30pm 12.8 NNW 7 10 - - 0.0 - - - - - - -
21/12:00pm 12.8 NW 8 10 - - 0.0 - - - - - - -
21/11:30am 12.6 NW 10 13 - - 0.0 - - - - - - -
21/11:00am 11.6 NNW 7 9 - - 0.0 - - - - - - -
21/10:30am 11.8 NNW 7 10 - - 0.0 - - - - - - -
21/10:00am 10.9 NW 6 8 - - 0.0 - - - - - - -
21/09:30am 10.8 NW 6 9 - - 0.0 - - - - - - -
21/09:00am 9.8 NW 5 9 - - 5.6 - - - - - - -
21/08:30am 9.4 NW 6 8 - - 5.6 - - - - - - -
21/08:00am 9.0 NW 7 9 - - 5.6 - - - - - - -
21/07:30am 8.9 NW 7 9 - - 5.6 - - - - - - -
21/07:00am 9.3 NW 6 8 - - 5.6 - - - - - - -
21/06:30am 9.6 NNW 7 8 - - 5.4 - - - - - - -
21/06:00am 9.7 NNW 3 5 - - 5.4 - - - - - - -
21/05:30am 9.2 NW 6 8 - - 5.4 - - - - - - -
21/05:00am 9.7 NW 5 7 - - 5.4 - - - - - - -
21/04:30am 9.3 WNW 5 7 - - 5.4 - - - - - - -
21/04:00am 9.4 NW 5 8 - - 5.4 - - - - - - -
21/03:30am 9.6 WNW 7 9 - - 5.4 - - - - - - -
21/03:00am 10.0 NW 5 7 - - 5.4 - - - - - - -
21/02:30am 10.3 WNW 5 7 - - 5.4 - - - - - - -
21/02:00am 10.6 WNW 6 7 - - 5.4 - - - - - - -
21/01:30am 10.5 NW 6 8 - - 5.4 - - - - - - -
21/01:00am 10.7 NW 5 6 - - 5.4 - - - - - - -
21/12:30am 11.0 NW 6 8 - - 5.4 - - - - - - -
21/12:00am 11.4 NW 6 7 - - 5.4 - - - - - - -
 
Date/Time
EST
Temp
°C
Wind Pressure Rain since
9am
mm
Weather Cloud Vis
km
Sea
Height
m
Swell
Dir  Spd
kts
Gust
kts
hPa Trend Height
m
Period
s
Dir
20/11:30pm 12.1 W 2 6 - - 5.4 - - - - - - -
20/11:00pm 11.8 SW 6 10 - - 5.4 - - - - - - -
20/10:30pm 11.6 SW 5 9 - - 5.4 - - - - - - -
20/10:00pm 11.5 SW 7 11 - - 5.4 - - - - - - -
20/09:30pm 11.2 WSW 6 8 - - 5.4 - - - - - - -
20/09:00pm 11.4 W 7 9 - - 5.0 - - - - - - -
20/08:30pm 11.4 W 11 13 - - 5.0 - - - - - - -
20/08:00pm 11.7 W 9 10 - - 5.0 - - - - - - -
20/07:30pm 11.6 SW 8 12 - - 4.8 - - - - - - -
20/07:00pm 12.0 WSW 4 8 - - 4.6 - - - - - - -
20/06:30pm 12.5 SW 6 10 - - 4.4 - - - - - - -
20/06:00pm 11.9 WSW 6 9 - - 4.4 Recent precip. - - - - - -
20/05:30pm 11.8 SW 8 12 - - 4.2 - - - - - - -
20/05:00pm 12.8 SSW 9 15 - - 4.0 - - - - - - -
20/04:30pm 12.6 S 5 10 - - 4.0 - - - - - - -
20/04:00pm 12.4 SSE 12 19 - - 3.6 - - - - - - -
20/03:30pm 12.9 SW 8 17 - - 3.6 - - - - - - -
20/03:00pm 12.5 SSW 8 12 - - 1.0 Rain - - - - - -
20/02:30pm 12.3 SSW 20 27 - - 0.6 - - - - - - -
20/02:20pm 13.4 SW 13 28 - - 0.0 - - - - - - -
20/02:00pm 13.6 SW 11 17 - - 0.0 - - - - - - -
20/01:30pm 13.0 SW 15 24 - - 0.0 - - - - - - -
20/01:15pm 13.6 SSW 16 26 - - 0.0 - - - - - - -
20/01:00pm 13.7 SSW 16 23 - - 0.0 - - - - - - -
20/12:30pm 14.0 SSW 16 24 - - 0.0 - - - - - - -
20/12:00pm 13.6 SSW 16 23 - - 0.0 - - - - - - -
20/11:30am 13.7 SSW 17 22 - - 0.0 - - - - - - -
20/11:00am 13.0 SW 13 20 - - 0.0 - - - - - - -
20/10:30am 12.8 SSW 14 22 - - 0.0 - - - - - - -
20/10:00am 12.6 SW 12 22 - - 0.0 - - - - - - -
20/09:30am 11.7 SW 12 18 - - 0.0 - - - - - - -
20/09:00am 10.9 SW 11 19 - - 1.4 - - - - - - -
20/08:30am 10.9 WSW 10 17 - - 1.4 - - - - - - -
20/08:00am 10.0 SW 11 18 - - 1.4 - - - - - - -
20/07:30am 9.4 WSW 10 18 - - 1.4 - - - - - - -
20/07:00am 9.2 WSW 11 15 - - 1.4 - - - - - - -
20/06:30am 9.1 WSW 11 18 - - 1.4 - - - - - - -
20/06:00am 9.1 WSW 11 18 - - 1.4 - - - - - - -
20/05:30am 9.1 WSW 10 18 - - 1.4 - - - - - - -
20/05:00am 9.3 SW 12 20 - - 1.4 - - - - - - -
20/04:30am 9.4 WSW 12 23 - - 1.4 - - - - - - -
20/04:00am 9.6 WSW 13 19 - - 1.4 - - - - - - -
20/03:30am 9.8 WSW 13 20 - - 1.4 - - - - - - -
20/03:00am 10.0 SW 15 25 - - 1.4 - - - - - - -
20/02:30am 9.9 SW 12 19 - - 1.4 - - - - - - -
20/02:00am 10.2 SW 13 22 - - 1.4 - - - - - - -
20/01:30am 10.6 SW 12 19 - - 1.4 - - - - - - -
20/01:00am 10.5 SW 11 20 - - 1.4 - - - - - - -
20/12:30am 10.3 SW 9 16 - - 1.4 - - - - - - -
20/12:00am 10.4 WSW 9 15 - - 1.4 Recent precip. - - - - - -
 
Date/Time
EST
Temp
°C
Wind Pressure Rain since
9am
mm
Weather Cloud Vis
km
Sea
Height
m
Swell
Dir  Spd
kts
Gust
kts
hPa Trend Height
m
Period
s
Dir
19/11:30pm 10.9 SSW 16 29 - - 1.4 - - - - - - -
19/11:22pm 10.7 SSW 27 38 - - 1.4 - - - - - - -
19/11:10pm 11.6 SSW 21 38 - - 1.2 - - - - - - -
19/11:07pm 12.1 SSW 18 28 - - 1.0 - - - - - - -
19/11:00pm 12.3 SSW 18 27 - - 1.0 - - - - - - -
19/10:43pm 11.8 SSW 22 35 - - 1.0 - - - - - - -
19/10:38pm 11.2 SW 16 35 - - 1.0 - - - - - - -
19/10:30pm 11.0 SW 11 20 - - 0.6 - - - - - - -
19/10:00pm 10.1 SW 14 22 - - 0.6 - - - - - - -
19/09:30pm 9.2 SSW 25 42 - - 0.6 - - - - - - -
19/09:29pm 9.1 SSW 26 42 - - 0.6 - - - - - - -
19/09:26pm 9.6 SSW 25 42 - - 0.6 - - - - - - -
19/09:25pm 10.2 SW 24 36 - - 0.4 - - - - - - -
19/09:00pm 12.1 SW 18 32 - - 0.0 - - - - - - -
19/08:30pm 14.1 SSW 27 38 - - 0.0 - - - - - - -
19/08:00pm 14.1 SSW 24 35 - - 0.0 - - - - - - -
19/07:30pm 14.1 SSW 24 35 - - 0.0 - - - - - - -
19/07:12pm 14.1 SSW 24 35 - - 0.0 - - - - - - -
19/07:00pm 14.1 SSW 23 33 - - 0.0 - - - - - - -
19/06:30pm 14.1 SSW 26 37 - - 0.0 - - - - - - -
19/06:05pm 13.9 SSW 21 32 - - 0.0 - - - - - - -
19/06:00pm 13.6 S 23 29 - - 0.0 - - - - - - -
19/05:30pm 14.0 SSW 27 39 - - 0.0 - - - - - - -
19/05:17pm 14.1 SSW 26 37 - - 0.0 - - - - - - -
19/05:00pm 14.2 SSW 24 32 - - 0.0 - - - - - - -
19/04:38pm 14.2 SSW 25 36 - - 0.0 - - - - - - -
19/04:30pm 14.2 SSW 25 35 - - 0.0 - - - - - - -
19/04:03pm 14.1 SSW 24 35 - - 0.0 - - - - - - -
19/04:00pm 14.1 SSW 24 33 - - 0.0 - - - - - - -
19/03:59pm 14.2 SSW 23 33 - - 0.0 - - - - - - -
19/03:30pm 14.4 SSW 23 32 - - 0.0 - - - - - - -
19/03:00pm 14.2 SSW 21 31 - - 0.0 - - - - - - -
19/02:54pm 14.1 SSW 21 31 - - 0.0 - - - - - - -
19/02:30pm 14.1 SSW 19 26 - - 0.0 - - - - - - -
19/02:00pm 14.0 SSW 20 28 - - 0.0 - - - - - - -

Other Formats:

Comma delimited format used in spreadsheet applications
http://www.bom.gov.au/fwo/IDN60701/IDN60701.94774.axf

JavaScript Object Notation format (JSON) in row-major order
http://www.bom.gov.au/fwo/IDN60701/IDN60701.94774.json